Time;durP1;ratioP1;P1;durP2;ratioP2;P2;SDS_P1;SDS_P2;PMS_P1;PMS_P2;Temp;Humidity;BMP_temperature;BMP_pressure;BME280_temperature;BME280_humidity;BME280_pressure;Samples;Min_cycle;Max_cycle;Signal;HPM_P1;HPM_P2
2021/03/22 00:00:35;;;;;;;55.78;34.55;;;102.80;2227.20;;;;;;5050115;28;20025;-60
2021/03/22 00:03:01;;;;;;;56.05;35.42;;;102.40;2227.20;;;;;;5049915;28;20112;-58
2021/03/22 00:05:27;;;;;;;60.92;39.78;;;102.50;2227.20;;;;;;5050323;28;20025;-56
2021/03/22 00:07:54;;;;;;;119.78;74.18;;;102.60;2227.20;;;;;;5050326;28;20083;-56
2021/03/22 00:10:22;;;;;;;99.38;57.45;;;102.60;2227.20;;;;;;5049917;28;20029;-57
2021/03/22 00:12:48;;;;;;;57.95;34.78;;;102.50;2227.20;;;;;;5049840;28;20032;-56
2021/03/22 00:15:18;;;;;;;62.55;40.40;;;77.70;2227.20;;;;;;5050229;28;20029;-55
2021/03/22 00:17:44;;;;;;;59.25;37.83;;;102.50;2227.20;;;;;;5049965;28;20037;-60
2021/03/22 00:20:11;;;;;;;55.53;34.47;;;102.60;2227.20;;;;;;5049841;28;20737;-58
2021/03/22 00:22:37;;;;;;;57.72;34.75;;;102.70;2227.20;;;;;;5049871;28;20029;-56
2021/03/22 00:25:05;;;;;;;51.63;33.22;;;102.40;2227.20;;;;;;5050057;28;20048;-59
2021/03/22 00:27:30;;;;;;;56.72;38.08;;;77.60;2227.20;;;;;;5049775;28;20059;-56
2021/03/22 00:29:56;;;;;;;75.22;47.25;;;77.60;2227.20;;;;;;5049769;28;20436;-62
2021/03/22 00:32:22;;;;;;;54.20;34.97;;;77.70;2227.20;;;;;;5049876;28;20032;-60
2021/03/22 00:34:47;;;;;;;44.75;31.98;;;77.60;2227.20;;;;;;5050115;28;20059;-57
2021/03/22 00:37:13;;;;;;;52.15;33.25;;;102.50;2227.20;;;;;;5050033;28;20510;-56
2021/03/22 00:39:39;;;;;;;71.10;46.17;;;77.70;2227.20;;;;;;5049955;28;20025;-61
2021/03/22 00:42:06;;;;;;;50.88;33.00;;;102.40;2227.20;;;;;;5049941;28;20032;-56
2021/03/22 00:44:31;;;;;;;50.78;33.15;;;77.70;2227.20;;;;;;5048361;28;20031;-57
2021/03/22 00:46:57;;;;;;;57.47;37.05;;;102.40;2227.20;;;;;;5049656;28;20104;-57
2021/03/22 00:49:23;;;;;;;48.40;30.73;;;77.70;2227.20;;;;;;5052539;28;20021;-58
2021/03/22 00:51:49;;;;;;;43.30;27.52;;;102.50;2227.20;;;;;;5053825;28;20021;-58
2021/03/22 00:54:15;;;;;;;49.03;30.15;;;102.40;2227.20;;;;;;5053486;28;20041;-57
2021/03/22 00:56:41;;;;;;;48.15;30.05;;;77.70;2227.20;;;;;;5053463;28;20450;-61
2021/03/22 00:59:06;;;;;;;48.03;30.83;;;77.60;2227.20;;;;;;5053466;28;20056;-58
2021/03/22 01:01:33;;;;;;;47.00;30.15;;;77.60;2227.20;;;;;;5053560;28;20032;-59
2021/03/22 01:03:59;;;;;;;48.90;32.45;;;77.60;2227.20;;;;;;5053097;28;20127;-63
2021/03/22 01:06:24;;;;;;;56.15;38.38;;;77.70;2227.20;;;;;;5053642;28;20112;-55
2021/03/22 01:08:50;;;;;;;77.63;48.92;;;77.50;2227.20;;;;;;5053269;28;20083;-56
2021/03/22 01:11:21;;;;;;;53.20;33.35;;;77.60;2227.20;;;;;;5053445;28;20025;-57
2021/03/22 01:13:53;;;;;;;55.65;40.20;;;77.70;2227.20;;;;;;5053478;28;20087;-56
2021/03/22 01:16:34;;;;;;;54.05;37.42;;;102.40;2227.20;;;;;;5052963;28;20467;-59
2021/03/22 01:19:04;;;;;;;65.38;41.45;;;102.40;2227.20;;;;;;5053235;28;20076;-57
2021/03/22 01:21:45;;;;;;;50.08;32.25;;;102.50;2227.20;;;;;;5053049;28;20029;-61
2021/03/22 01:24:13;;;;;;;49.13;31.98;;;102.50;2227.20;;;;;;5053174;28;20036;-57
2021/03/22 01:26:40;;;;;;;61.72;39.63;;;102.50;2227.20;;;;;;5053059;28;20538;-59
2021/03/22 01:29:15;;;;;;;53.00;33.85;;;102.50;2227.20;;;;;;5053139;28;20025;-63
2021/03/22 01:31:42;;;;;;;46.33;30.08;;;102.50;2227.20;;;;;;5052764;28;20064;-65
2021/03/22 01:34:08;;;;;;;49.35;33.67;;;102.40;2227.20;;;;;;5052929;28;20028;-63
2021/03/22 01:36:34;;;;;;;56.90;36.03;;;102.50;2227.20;;;;;;5052698;28;20045;-64
2021/03/22 01:39:09;;;;;;;52.75;36.28;;;102.50;2227.20;;;;;;5052550;28;20033;-64
2021/03/22 01:41:56;;;;;;;46.75;31.50;;;102.70;2227.20;;;;;;5052797;28;20029;-63
2021/03/22 01:44:28;;;;;;;45.75;32.03;;;102.70;2227.20;;;;;;5052640;28;20064;-63
2021/03/22 01:46:56;;;;;;;49.70;33.50;;;102.60;2227.20;;;;;;5052944;28;20052;-57
2021/03/22 01:49:25;;;;;;;42.63;30.52;;;102.60;2227.20;;;;;;5052551;28;20434;-60
2021/03/22 01:51:51;;;;;;;47.90;33.47;;;77.70;2227.20;;;;;;5052429;28;20021;-55
2021/03/22 01:54:19;;;;;;;44.05;27.38;;;102.50;2227.20;;;;;;5052633;28;20029;-57
2021/03/22 01:57:12;;;;;;;45.17;28.10;;;102.60;2227.20;;;;;;5052329;28;20095;-58
2021/03/22 01:59:37;;;;;;;40.72;26.83;;;77.70;2227.20;;;;;;5051691;28;20068;-56
2021/03/22 02:02:03;;;;;;;41.03;28.58;;;102.40;2227.20;;;;;;5052003;28;20456;-59
2021/03/22 02:04:30;;;;;;;41.90;27.50;;;102.40;2227.20;;;;;;5052260;28;20025;-57
2021/03/22 02:06:58;;;;;;;42.17;26.27;;;77.70;2227.20;;;;;;5052295;28;20424;-57
2021/03/22 02:09:24;;;;;;;43.60;27.70;;;77.70;2227.20;;;;;;5052312;28;20048;-56
2021/03/22 02:11:49;;;;;;;57.50;36.15;;;77.70;2227.20;;;;;;5052425;28;20056;-56
2021/03/22 02:14:15;;;;;;;43.05;27.00;;;102.40;2227.20;;;;;;5052457;28;20494;-54
2021/03/22 02:17:10;;;;;;;46.08;29.30;;;102.50;2227.20;;;;;;5052055;28;20032;-56
2021/03/22 02:20:17;;;;;;;95.13;63.90;;;102.40;2227.20;;;;;;5052063;28;20499;-56
2021/03/22 02:22:49;;;;;;;63.92;41.95;;;77.70;2227.20;;;;;;5010230;28;20037;-60
2021/03/22 02:25:43;;;;;;;75.60;48.08;;;102.40;2227.20;;;;;;5010134;28;20037;-56
2021/03/22 02:28:14;;;;;;;;;;;102.50;2227.20;;;;;;5010363;28;20048;-61
2021/03/22 02:30:59;;;;;;;41.63;25.23;;;102.50;2227.20;;;;;;5009966;28;19916;-56
2021/03/22 02:33:46;;;;;;;54.88;33.15;;;77.60;2227.20;;;;;;5010098;28;20408;-56
2021/03/22 02:36:13;;;;;;;49.08;31.90;;;77.70;2227.20;;;;;;5009592;28;20049;-59
2021/03/22 02:38:51;;;;;;;49.00;32.40;;;102.40;2227.20;;;;;;5009590;28;20544;-56
2021/03/22 02:41:22;;;;;;;76.20;49.50;;;102.50;2227.20;;;;;;5010037;28;20029;-63
2021/03/22 02:44:25;;;;;;;61.92;43.17;;;102.50;2227.20;;;;;;5009616;28;20026;-57
2021/03/22 02:46:56;;;;;;;50.90;38.60;;;102.40;2227.20;;;;;;4951143;29;20094;-57
2021/03/22 02:49:23;;;;;;;47.63;30.70;;;102.40;2227.20;;;;;;4951171;28;20036;-59
2021/03/22 02:52:25;;;;;;;48.13;31.33;;;77.70;2227.20;;;;;;4951172;29;20035;-57
2021/03/22 02:55:26;;;;;;;46.92;28.92;;;77.70;2227.20;;;;;;4951042;29;20042;-57
2021/03/22 02:58:04;;;;;;;49.22;30.50;;;77.50;2227.20;;;;;;4951086;29;20048;-57
2021/03/22 03:00:37;;;;;;;46.00;31.88;;;77.40;2227.20;;;;;;4951274;29;20450;-57
2021/03/22 03:03:08;;;;;;;43.40;28.10;;;77.50;2227.20;;;;;;4950992;29;20545;-56
2021/03/22 03:05:34;;;;;;;46.28;29.45;;;77.30;2227.20;;;;;;4951116;29;20122;-56
2021/03/22 03:08:04;;;;;;;52.05;29.17;;;77.30;2227.20;;;;;;4950863;29;20490;-57
2021/03/22 03:10:30;;;;;;;43.13;27.23;;;77.30;2227.20;;;;;;4950939;29;20035;-59
2021/03/22 03:12:56;;;;;;;45.75;27.15;;;77.50;2227.20;;;;;;4950938;28;20389;-61
2021/03/22 03:15:22;;;;;;;44.47;28.92;;;77.50;2227.20;;;;;;4950655;29;20127;-60
2021/03/22 03:17:49;;;;;;;46.58;31.13;;;77.50;2227.20;;;;;;4950881;29;20045;-56
2021/03/22 03:20:19;;;;;;;43.60;27.58;;;77.20;2227.20;;;;;;4952313;29;20493;-56
2021/03/22 03:22:45;;;;;;;45.72;28.92;;;77.40;2227.20;;;;;;4990124;28;20033;-57
2021/03/22 03:25:12;;;;;;;44.15;28.30;;;77.30;2227.20;;;;;;5008827;28;20435;-57
2021/03/22 03:27:38;;;;;;;48.22;31.73;;;77.40;2227.20;;;;;;5008899;28;20128;-56
2021/03/22 03:30:17;;;;;;;47.92;28.02;;;77.30;2227.20;;;;;;5008856;28;20026;-56
2021/03/22 03:32:43;;;;;;;60.85;39.63;;;77.50;2227.20;;;;;;5008903;28;20443;-56
2021/03/22 03:35:11;;;;;;;43.13;26.17;;;77.40;2227.20;;;;;;5040402;28;20060;-62
2021/03/22 03:37:37;;;;;;;48.55;29.33;;;77.30;2227.20;;;;;;5055601;28;20132;-57
2021/03/22 03:40:16;;;;;;;48.72;27.70;;;77.40;2227.20;;;;;;5055613;28;20462;-59
2021/03/22 03:42:42;;;;;;;43.92;29.00;;;77.50;2227.20;;;;;;5053347;28;20104;-59
2021/03/22 03:45:11;;;;;;;51.90;33.53;;;77.50;2227.20;;;;;;5050631;28;20107;-61
2021/03/22 03:47:40;;;;;;;48.25;30.40;;;77.40;2227.20;;;;;;5050387;28;20028;-62
2021/03/22 03:50:12;;;;;;;52.05;32.17;;;77.40;2227.20;;;;;;5050713;28;20025;-55
2021/03/22 03:52:37;;;;;;;50.92;30.35;;;77.40;2227.20;;;;;;5050473;28;20064;-62
2021/03/22 03:55:05;;;;;;;52.22;30.50;;;77.40;2227.20;;;;;;5050517;28;20021;-55
2021/03/22 03:57:31;;;;;;;49.38;31.27;;;77.30;2227.20;;;;;;5050021;28;20029;-56
2021/03/22 03:59:57;;;;;;;55.22;31.48;;;77.30;2227.20;;;;;;5050370;28;20025;-56
2021/03/22 04:02:23;;;;;;;50.33;30.45;;;77.30;2227.20;;;;;;5050259;28;20090;-57
2021/03/22 04:04:49;;;;;;;49.17;29.08;;;77.30;2227.20;;;;;;5050190;28;20487;-58
2021/03/22 04:07:14;;;;;;;39.42;24.10;;;77.20;2227.20;;;;;;5050511;28;20032;-58
2021/03/22 04:09:40;;;;;;;40.47;28.27;;;77.20;2227.20;;;;;;5050198;28;20074;-62
2021/03/22 04:12:06;;;;;;;42.17;27.33;;;77.30;2227.20;;;;;;5050533;28;20414;-64
2021/03/22 04:14:32;;;;;;;39.67;26.30;;;77.30;2227.20;;;;;;5049901;28;20025;-57
2021/03/22 04:16:58;;;;;;;37.10;23.52;;;77.50;2227.20;;;;;;5049789;28;20032;-58
2021/03/22 04:19:24;;;;;;;40.78;25.73;;;77.30;2227.20;;;;;;5050225;28;20475;-62
2021/03/22 04:21:50;;;;;;;32.83;22.25;;;77.10;2227.20;;;;;;5050031;28;20025;-56
2021/03/22 04:24:17;;;;;;;36.47;22.58;;;77.30;2227.20;;;;;;5054791;28;20029;-60
2021/03/22 04:26:43;;;;;;;38.00;24.83;;;77.00;2227.20;;;;;;5056865;28;20029;-58
2021/03/22 04:29:10;;;;;;;34.35;22.85;;;76.90;2227.20;;;;;;5056486;28;20039;-62
2021/03/22 04:31:37;;;;;;;39.20;24.23;;;77.10;2227.20;;;;;;5056666;28;20036;-57
2021/03/22 04:34:04;;;;;;;38.72;24.20;;;76.80;2227.20;;;;;;5056773;28;20537;-57
2021/03/22 04:36:33;;;;;;;43.88;24.30;;;52.00;2227.20;;;;;;5056528;28;20474;-59
2021/03/22 04:38:59;;;;;;;44.75;27.50;;;51.80;2227.20;;;;;;5056676;28;20037;-57
2021/03/22 04:41:25;;;;;;;37.40;24.92;;;51.90;2227.20;;;;;;5056818;28;20052;-62
2021/03/22 04:43:51;;;;;;;40.33;24.98;;;52.10;2227.20;;;;;;5055307;28;20029;-56
2021/03/22 04:46:17;;;;;;;43.55;26.98;;;76.80;2227.20;;;;;;5056702;28;20021;-60
2021/03/22 04:48:43;;;;;;;45.65;26.55;;;76.90;2227.20;;;;;;5056598;28;20033;-59
2021/03/22 04:51:09;;;;;;;44.55;28.85;;;77.10;2227.20;;;;;;5056314;28;20154;-58
2021/03/22 04:53:35;;;;;;;43.13;28.05;;;77.10;2227.20;;;;;;5056629;28;20033;-58
2021/03/22 04:56:00;;;;;;;43.25;29.58;;;76.90;2227.20;;;;;;5056485;28;20547;-57
2021/03/22 04:58:26;;;;;;;56.38;32.67;;;77.00;2227.20;;;;;;5055258;28;20076;-60
2021/03/22 05:00:52;;;;;;;62.28;39.78;;;77.10;2227.20;;;;;;5056050;28;20411;-55
2021/03/22 05:03:22;;;;;;;73.35;44.25;;;77.00;2227.20;;;;;;5056271;28;20029;-57
2021/03/22 05:05:49;;;;;;;58.70;34.78;;;76.90;2227.20;;;;;;5056253;28;20371;-57
2021/03/22 05:08:18;;;;;;;46.35;27.98;;;76.80;2227.20;;;;;;5056697;28;20029;-56
2021/03/22 05:10:47;;;;;;;39.97;25.05;;;76.90;2227.20;;;;;;5056333;28;20117;-57
2021/03/22 05:13:15;;;;;;;35.72;23.83;;;77.10;2227.20;;;;;;5056577;28;20439;-64
2021/03/22 05:15:41;;;;;;;50.35;30.77;;;76.90;2227.20;;;;;;5055957;28;20378;-60
2021/03/22 05:18:08;;;;;;;41.38;27.05;;;77.00;2227.20;;;;;;5056145;28;20060;-56
2021/03/22 05:20:43;;;;;;;47.15;31.23;;;77.10;2227.20;;;;;;5056600;28;20143;-63
2021/03/22 05:23:12;;;;;;;43.42;28.83;;;77.20;2227.20;;;;;;5056276;28;20048;-57
2021/03/22 05:25:37;;;;;;;53.72;39.05;;;77.30;2227.20;;;;;;5056134;28;20100;-56
2021/03/22 05:28:05;;;;;;;54.08;35.45;;;77.50;2227.20;;;;;;5056272;28;20446;-57
2021/03/22 05:30:31;;;;;;;44.58;26.80;;;77.60;2227.20;;;;;;5056049;28;20447;-63
2021/03/22 05:32:59;;;;;;;38.53;27.63;;;77.60;2227.20;;;;;;5055970;28;20033;-57
2021/03/22 05:35:26;;;;;;;42.63;28.20;;;102.40;2227.20;;;;;;5053028;28;20471;-56
2021/03/22 05:37:52;;;;;;;43.08;27.65;;;77.70;2227.20;;;;;;5052593;28;20049;-57
2021/03/22 05:40:31;;;;;;;40.63;25.02;;;77.70;2227.20;;;;;;5052915;28;20021;-57
2021/03/22 05:43:06;;;;;;;44.53;28.73;;;77.40;2227.20;;;;;;5052751;28;20021;-56
2021/03/22 05:45:47;;;;;;;53.33;33.85;;;77.50;2227.20;;;;;;5052966;28;20025;-57
2021/03/22 05:48:35;;;;;;;48.80;32.25;;;77.50;2227.20;;;;;;5052902;28;20032;-62
2021/03/22 05:51:31;;;;;;;47.60;31.60;;;77.40;2227.20;;;;;;5052389;28;20039;-58
2021/03/22 05:54:12;;;;;;;43.30;30.05;;;77.70;2227.20;;;;;;5052402;28;20490;-57
2021/03/22 05:56:48;;;;;;;51.40;32.60;;;102.70;2227.20;;;;;;5052233;28;20114;-56
2021/03/22 05:59:47;;;;;;;47.88;30.83;;;102.90;2227.20;;;;;;5052532;28;20031;-56
2021/03/22 06:02:39;;;;;;;50.70;34.88;;;103.10;2227.20;;;;;;5010356;28;20042;-56
2021/03/22 06:05:28;;;;;;;48.38;33.25;;;128.00;2201.60;;;;;;5010506;28;20040;-55
2021/03/22 06:07:58;;;;;;;48.75;30.52;;;128.10;2176.00;;;;;;5010361;28;20033;-55
2021/03/22 06:10:24;;;;;;;45.42;29.00;;;128.30;2099.20;;;;;;5010386;28;20033;-55
2021/03/22 06:12:57;;;;;;;63.70;41.75;;;128.60;2073.60;;;;;;5010362;28;20030;-55
2021/03/22 06:15:26;;;;;;;50.38;31.77;;;128.60;2073.60;;;;;;5010343;28;20033;-56
2021/03/22 06:18:02;;;;;;;44.30;27.02;;;128.80;2048.00;;;;;;5010108;28;20038;-56
2021/03/22 06:20:27;;;;;;;88.15;59.80;;;128.80;2073.60;;;;;;5009952;28;20029;-62
2021/03/22 06:22:56;;;;;;;151.20;105.45;;;153.60;2048.00;;;;;;5010187;28;20026;-56
2021/03/22 06:25:29;;;;;;;86.68;59.20;;;153.80;2022.40;;;;;;5009983;28;20038;-56
2021/03/22 06:28:02;;;;;;;62.95;42.08;;;153.80;2022.40;;;;;;5010178;28;20025;-57
2021/03/22 06:30:28;;;;;;;50.88;35.22;;;154.10;1971.20;;;;;;5009914;28;20419;-57
2021/03/22 06:32:57;;;;;;;55.85;38.50;;;154.40;1971.20;;;;;;5010053;28;20046;-56
2021/03/22 06:35:29;;;;;;;54.10;37.47;;;154.40;1945.60;;;;;;5009998;28;20034;-56
2021/03/22 06:37:55;;;;;;;83.03;52.35;;;179.30;1894.40;;;;;;5019926;28;20073;-55
2021/03/22 06:40:24;;;;;;;46.92;33.28;;;179.50;1868.80;;;;;;5051593;28;20110;-55
2021/03/22 06:43:04;;;;;;;73.45;47.53;;;179.70;1843.20;;;;;;5051787;28;20064;-57
2021/03/22 06:45:49;;;;;;;38.35;26.63;;;179.40;1843.20;;;;;;5051310;28;20033;-55
2021/03/22 06:48:19;;;;;;;36.55;23.80;;;179.50;1843.20;;;;;;5051534;28;20029;-54
2021/03/22 06:50:47;;;;;;;40.33;26.90;;;179.40;1868.80;;;;;;5051690;28;20064;-56
2021/03/22 06:53:33;;;;;;;63.90;33.97;;;179.90;1843.20;;;;;;5051468;28;20029;-54
2021/03/22 06:56:30;;;;;;;39.25;25.55;;;179.60;1868.80;;;;;;5051259;28;20064;-55
2021/03/22 06:59:11;;;;;;;88.80;44.13;;;179.60;1843.20;;;;;;5042677;28;20605;-54
2021/03/22 07:01:40;;;;;;;46.20;28.30;;;179.40;1894.40;;;;;;5051133;28;20024;-57
2021/03/22 07:04:31;;;;;;;38.33;24.88;;;179.50;1894.40;;;;;;5051364;28;20064;-56
2021/03/22 07:07:08;;;;;;;57.33;34.42;;;179.50;1868.80;;;;;;5051201;28;20090;-54
2021/03/22 07:09:37;;;;;;;127.97;72.05;;;179.50;1868.80;;;;;;5051248;28;20021;-57
2021/03/22 07:12:05;;;;;;;79.85;49.15;;;179.70;1868.80;;;;;;5051189;28;20036;-58
2021/03/22 07:14:31;;;;;;;91.35;57.03;;;179.90;1843.20;;;;;;5050909;28;20079;-59
2021/03/22 07:17:14;;;;;;;71.25;42.78;;;180.00;1817.60;;;;;;5050843;28;20025;-58
2021/03/22 07:19:40;;;;;;;41.58;26.63;;;204.80;1766.40;;;;;;5049093;28;20625;-57
2021/03/22 07:22:21;;;;;;;39.28;29.15;;;205.30;1766.40;;;;;;5069040;28;20032;-57
2021/03/22 07:24:58;;;;;;;37.88;27.40;;;205.60;1689.60;;;;;;5070402;28;20028;-61
2021/03/22 07:27:31;;;;;;;39.60;28.20;;;230.40;1664.00;;;;;;5069958;28;20028;-57
2021/03/22 07:30:02;;;;;;;32.22;23.75;;;230.80;1612.80;;;;;;5070569;28;20398;-57
2021/03/22 07:33:09;;;;;;;36.78;26.83;;;231.30;1536.00;;;;;;5070433;28;20405;-57
2021/03/22 07:36:07;;;;;;;32.70;25.73;;;256.50;1510.40;;;;;;5048004;28;20607;-57
2021/03/22 07:38:43;;;;;;;34.67;25.75;;;282.20;1433.60;;;;;;5048308;28;20424;-59
2021/03/22 07:41:11;;;;;;;36.20;27.25;;;307.60;1382.40;;;;;;5048074;28;20108;-60
2021/03/22 07:43:58;;;;;;;32.75;25.45;;;332.80;1331.20;;;;;;5047613;28;20037;-59
2021/03/22 07:46:51;;;;;;;32.92;26.58;;;358.60;1228.80;;;;;;5048024;28;20553;-58
2021/03/22 07:49:17;;;;;;;31.35;26.05;;;384.20;1126.40;;;;;;5047169;28;20091;-60
2021/03/22 07:51:51;;;;;;;31.08;24.05;;;410.00;1075.20;;;;;;5047804;28;20025;-59
2021/03/22 07:54:38;;;;;;;23.13;20.55;;;435.60;1024.00;;;;;;5048331;28;20032;-58
2021/03/22 07:57:26;;;;;;;23.00;20.60;;;435.40;972.80;;;;;;5047995;28;20041;-59
2021/03/22 08:00:33;;;;;;;22.50;19.85;;;410.00;1024.00;;;;;;4968781;28;20078;-58
2021/03/22 08:03:12;;;;;;;24.60;19.30;;;359.00;1126.40;;;;;;4930587;29;20173;-58
2021/03/22 08:06:05;;;;;;;26.58;20.10;;;307.70;1280.00;;;;;;4930969;29;20125;-60
2021/03/22 08:08:36;;;;;;;24.30;20.03;;;281.80;1382.40;;;;;;4931853;29;20419;-60
2021/03/22 08:11:10;;;;;;;23.20;18.27;;;282.30;1331.20;;;;;;4949706;29;20035;-57
2021/03/22 08:13:39;;;;;;;;;;;307.20;1382.40;;;;;;4950389;29;20039;-58
2021/03/22 08:16:37;;;;;;;23.45;19.55;;;307.60;1331.20;;;;;;4947318;29;19911;-65
2021/03/22 08:19:13;;;;;;;22.35;17.73;;;307.40;1331.20;;;;;;4945693;29;20048;-56
2021/03/22 08:21:44;;;;;;;22.80;18.55;;;281.70;1408.00;;;;;;4933718;29;20044;-59
2021/03/22 08:24:21;;;;;;;24.73;20.00;;;281.60;1382.40;;;;;;4949116;29;20036;-57
2021/03/22 08:26:51;;;;;;;22.85;18.00;;;281.60;1408.00;;;;;;4949870;29;20097;-63
2021/03/22 08:29:30;;;;;;;38.42;27.85;;;281.70;1408.00;;;;;;4949383;29;20082;-60
2021/03/22 08:32:36;;;;;;;33.45;26.88;;;281.60;1408.00;;;;;;4949370;29;20113;-56
2021/03/22 08:35:09;;;;;;;23.13;16.63;;;256.50;1433.60;;;;;;4945584;29;20043;-62
2021/03/22 08:37:59;;;;;;;56.42;36.95;;;230.70;1561.60;;;;;;4964113;28;20047;-59
2021/03/22 08:40:43;;;;;;;30.33;20.25;;;205.70;1612.80;;;;;;4953579;28;20115;-54
2021/03/22 08:43:29;;;;;;;26.85;18.92;;;205.50;1638.40;;;;;;4949715;29;20122;-56
2021/03/22 08:46:07;;;;;;;99.07;58.78;;;205.20;1689.60;;;;;;4949668;29;20049;-55
2021/03/22 08:48:33;;;;;;;27.92;17.63;;;204.80;1740.80;;;;;;4949763;29;20066;-56
2021/03/22 08:51:12;;;;;;;23.08;17.73;;;179.80;1792.00;;;;;;4949497;29;20075;-59
2021/03/22 08:53:39;;;;;;;28.35;19.75;;;180.00;1792.00;;;;;;4949072;29;20053;-55
2021/03/22 08:56:24;;;;;;;74.18;49.20;;;180.00;1817.60;;;;;;4990702;28;20505;-58
2021/03/22 08:58:52;;;;;;;28.38;18.80;;;179.40;1817.60;;;;;;5027464;28;20111;-59
2021/03/22 09:01:20;;;;;;;50.40;35.10;;;154.40;1894.40;;;;;;5027489;28;20029;-62
2021/03/22 09:03:51;;;;;;;37.50;26.60;;;154.50;1868.80;;;;;;5027817;28;20042;-57
2021/03/22 09:06:17;;;;;;;112.20;84.70;;;179.20;1868.80;;;;;;5027894;28;20383;-57
2021/03/22 09:08:54;;;;;;;29.05;20.00;;;179.30;1868.80;;;;;;5027560;28;20566;-56
2021/03/22 09:11:29;;;;;;;24.50;17.45;;;179.70;1843.20;;;;;;5031232;28;20041;-57
2021/03/22 09:14:16;;;;;;;26.23;19.40;;;179.80;1817.60;;;;;;5031597;28;20022;-58
2021/03/22 09:16:53;;;;;;;26.88;18.10;;;179.80;1843.20;;;;;;5033625;28;20024;-56
2021/03/22 09:19:22;;;;;;;30.77;22.23;;;179.70;1843.20;;;;;;5073046;28;20028;-55
2021/03/22 09:22:11;;;;;;;34.35;23.90;;;179.60;1894.40;;;;;;5073141;28;20562;-57
2021/03/22 09:24:40;;;;;;;27.98;20.02;;;179.90;1868.80;;;;;;5075307;28;20104;-57
2021/03/22 09:27:21;;;;;;;26.38;18.05;;;179.70;1894.40;;;;;;5073058;28;20074;-56
2021/03/22 09:30:04;;;;;;;31.00;22.38;;;179.80;1894.40;;;;;;5072890;28;20039;-61
2021/03/22 09:32:36;;;;;;;24.52;18.42;;;180.10;1843.20;;;;;;5072795;28;20029;-56
2021/03/22 09:35:07;;;;;;;21.50;17.30;;;204.80;1843.20;;;;;;5073016;28;20457;-55
2021/03/22 09:37:47;;;;;;;24.23;20.38;;;205.00;1843.20;;;;;;5072712;28;20094;-59
2021/03/22 09:40:19;;;;;;;27.67;20.27;;;205.10;1792.00;;;;;;5072905;28;20021;-57
2021/03/22 09:43:08;;;;;;;26.27;19.35;;;205.30;1792.00;;;;;;5072862;28;20092;-59
2021/03/22 09:45:39;;;;;;;27.02;19.58;;;205.20;1817.60;;;;;;5072804;28;20101;-60
2021/03/22 09:48:16;;;;;;;30.08;20.58;;;205.60;1792.00;;;;;;5072809;28;20021;-56
2021/03/22 09:50:52;;;;;;;30.30;20.52;;;230.40;1740.80;;;;;;5072543;28;20028;-56
2021/03/22 09:53:29;;;;;;;33.63;20.98;;;230.40;1740.80;;;;;;5072548;28;20439;-56
2021/03/22 09:56:02;;;;;;;26.33;17.52;;;205.60;1792.00;;;;;;5072527;28;20024;-56
2021/03/22 09:58:47;;;;;;;27.98;21.02;;;205.70;1792.00;;;;;;5072186;28;20078;-56
2021/03/22 10:01:31;;;;;;;28.95;20.38;;;205.30;1843.20;;;;;;5072274;28;20076;-56
2021/03/22 10:04:15;;;;;;;53.80;35.00;;;205.60;1792.00;;;;;;5072266;28;20072;-57
2021/03/22 10:06:59;;;;;;;27.75;20.90;;;205.10;1817.60;;;;;;5072263;28;20036;-56
2021/03/22 10:09:25;;;;;;;26.77;18.83;;;205.00;1868.80;;;;;;5072262;28;20028;-57
2021/03/22 10:11:55;;;;;;;24.02;18.58;;;205.20;1868.80;;;;;;5072016;28;20379;-57
2021/03/22 10:14:37;;;;;;;34.63;31.13;;;205.10;1843.20;;;;;;5072397;28;20020;-56
2021/03/22 10:17:05;;;;;;;46.25;41.97;;;205.30;1843.20;;;;;;5072045;28;20032;-56
2021/03/22 10:19:36;;;;;;;25.50;19.50;;;205.30;1817.60;;;;;;5071938;28;20021;-56
2021/03/22 10:22:16;;;;;;;31.83;21.80;;;205.50;1817.60;;;;;;5071315;28;20352;-55
2021/03/22 10:25:11;;;;;;;28.08;22.95;;;205.60;1792.00;;;;;;5071952;28;20056;-54
2021/03/22 10:27:39;;;;;;;32.05;23.55;;;205.50;1843.20;;;;;;5071787;28;20396;-55
2021/03/22 10:30:11;;;;;;;28.35;21.05;;;205.40;1817.60;;;;;;5071671;28;20021;-58
2021/03/22 10:32:41;;;;;;;24.77;17.17;;;205.40;1817.60;;;;;;5071454;28;20041;-56
2021/03/22 10:35:14;;;;;;;40.25;29.63;;;205.30;1843.20;;;;;;5071614;28;20410;-56
2021/03/22 10:37:44;;;;;;;137.10;96.22;;;205.30;1843.20;;;;;;5071305;28;20387;-57
2021/03/22 10:40:33;;;;;;;28.60;19.75;;;205.00;1843.20;;;;;;5071473;28;20024;-57
2021/03/22 10:42:59;;;;;;;32.47;23.38;;;179.90;1920.00;;;;;;5071275;28;20064;-57
2021/03/22 10:45:35;;;;;;;23.65;17.55;;;204.80;1894.40;;;;;;5071624;28;20032;-56
2021/03/22 10:48:38;;;;;;;32.28;22.23;;;179.70;1945.60;;;;;;5071596;28;20027;-56
2021/03/22 10:51:10;;;;;;;25.02;19.20;;;179.90;1945.60;;;;;;5071279;28;20047;-56
2021/03/22 10:54:00;;;;;;;23.90;17.20;;;179.70;1945.60;;;;;;5071324;28;20028;-56
2021/03/22 10:56:37;;;;;;;27.00;18.25;;;179.70;1971.20;;;;;;5071539;28;20381;-56
2021/03/22 10:59:20;;;;;;;32.40;25.65;;;179.70;1971.20;;;;;;5071245;28;20111;-56
2021/03/22 11:01:49;;;;;;;20.73;16.67;;;179.50;2022.40;;;;;;5071611;28;20032;-57
2021/03/22 11:04:21;;;;;;;19.42;16.05;;;154.50;2073.60;;;;;;5071264;28;20043;-58
2021/03/22 11:06:48;;;;;;;27.60;21.70;;;179.20;2048.00;;;;;;5071207;28;20348;-57
2021/03/22 11:09:58;;;;;;;23.75;17.17;;;154.30;2099.20;;;;;;5071322;28;20021;-56
2021/03/22 11:12:26;;;;;;;23.58;15.30;;;154.50;2073.60;;;;;;5072766;28;20036;-57
2021/03/22 11:15:06;;;;;;;24.73;19.77;;;154.40;2099.20;;;;;;5070641;28;20079;-58
2021/03/22 11:17:31;;;;;;;22.50;18.00;;;154.50;2048.00;;;;;;5070840;28;20039;-58
2021/03/22 11:20:04;;;;;;;20.60;15.40;;;154.40;2099.20;;;;;;5070736;28;20025;-58
2021/03/22 11:22:45;;;;;;;25.23;18.05;;;154.40;2099.20;;;;;;5070575;28;20088;-58
2021/03/22 11:25:29;;;;;;;20.60;14.43;;;154.40;2099.20;;;;;;5070609;28;20024;-57
2021/03/22 11:28:05;;;;;;;21.23;16.90;;;154.30;2124.80;;;;;;5070768;28;20056;-56
2021/03/22 11:30:39;;;;;;;19.13;15.23;;;154.50;2099.20;;;;;;5070499;28;20021;-59
2021/03/22 11:33:16;;;;;;;24.73;22.23;;;154.50;2073.60;;;;;;5070080;28;20352;-56
2021/03/22 11:35:44;;;;;;;17.45;13.80;;;154.00;2150.40;;;;;;5070426;28;20028;-58
2021/03/22 11:38:31;;;;;;;23.33;18.30;;;154.20;2124.80;;;;;;5069899;28;20052;-57
2021/03/22 11:40:56;;;;;;;22.15;15.65;;;154.50;2099.20;;;;;;5070571;28;20467;-59
2021/03/22 11:43:27;;;;;;;19.95;13.88;;;154.30;2099.20;;;;;;5070568;28;20025;-57
2021/03/22 11:45:53;;;;;;;18.17;12.75;;;154.30;2150.40;;;;;;5070341;28;20028;-58
2021/03/22 11:48:21;;;;;;;17.33;12.80;;;154.50;2099.20;;;;;;5070262;28;20031;-58
2021/03/22 11:51:09;;;;;;;16.77;13.35;;;154.40;2124.80;;;;;;5070197;28;20028;-57
2021/03/22 11:53:57;;;;;;;17.08;13.57;;;179.30;2073.60;;;;;;5070196;28;20103;-57
2021/03/22 11:56:30;;;;;;;15.95;11.63;;;179.40;2073.60;;;;;;5070271;28;20028;-57
2021/03/22 11:59:20;;;;;;;16.27;11.73;;;179.50;2048.00;;;;;;5070158;28;20036;-57
2021/03/22 12:02:05;;;;;;;15.98;11.80;;;179.30;2073.60;;;;;;5070247;28;20632;-56
2021/03/22 12:04:32;;;;;;;23.30;10.27;;;179.40;2073.60;;;;;;5069818;28;20037;-58
2021/03/22 12:07:03;;;;;;;12.85;10.65;;;179.30;2073.60;;;;;;5069880;28;20035;-57
2021/03/22 12:09:31;;;;;;;14.98;12.05;;;154.40;2099.20;;;;;;5069943;28;20025;-59
2021/03/22 12:11:58;;;;;;;14.93;11.57;;;154.50;2124.80;;;;;;5069997;28;20036;-56
2021/03/22 12:14:24;;;;;;;14.50;10.95;;;154.30;2124.80;;;;;;5070240;28;20024;-56
2021/03/22 12:17:02;;;;;;;24.25;18.40;;;154.30;2176.00;;;;;;5069527;28;20109;-56
2021/03/22 12:19:38;;;;;;;15.25;12.10;;;154.40;2150.40;;;;;;5069823;28;20025;-60
2021/03/22 12:22:04;;;;;;;42.17;26.73;;;154.20;2176.00;;;;;;5070057;28;20551;-55
2021/03/22 12:24:30;;;;;;;145.43;89.18;;;153.90;2227.20;;;;;;5069804;28;20524;-55
2021/03/22 12:26:55;;;;;;;37.85;25.92;;;153.90;2201.60;;;;;;5070039;28;20029;-57
2021/03/22 12:29:21;;;;;;;16.52;12.75;;;154.10;2201.60;;;;;;5069971;28;20056;-55
2021/03/22 12:31:49;;;;;;;16.55;11.85;;;154.10;2176.00;;;;;;5070004;28;20082;-58
2021/03/22 12:34:20;;;;;;;16.60;11.82;;;154.00;2201.60;;;;;;5069861;28;20032;-56